Time;durP1;ratioP1;P1;durP2;ratioP2;P2;SDS_P1;SDS_P2;PMS_P1;PMS_P2;Temp;Humidity;BMP_temperature;BMP_pressure;BME280_temperature;BME280_humidity;BME280_pressure;Samples;Min_cycle;Max_cycle;Signal;HPM_P1;HPM_P2
2022/04/22 00:00:33;;;;;;;7.32;3.45;;;9.00;99.90;;;;;;4955324;28;20094;-80
2022/04/22 00:02:59;;;;;;;8.25;4.03;;;9.00;99.90;;;;;;4967898;28;20126;-79
2022/04/22 00:05:25;;;;;;;7.93;4.07;;;9.00;99.90;;;;;;4967098;28;20371;-79
2022/04/22 00:07:51;;;;;;;10.88;4.30;;;9.00;99.90;;;;;;4948045;28;20031;-80
2022/04/22 00:10:17;;;;;;;8.88;4.50;;;9.00;99.90;;;;;;4966253;28;21971;-79
2022/04/22 00:12:46;;;;;;;9.65;4.63;;;8.90;99.90;;;;;;4947512;28;20038;-79
2022/04/22 00:15:15;;;;;;;8.88;3.95;;;8.90;99.90;;;;;;4949128;28;20126;-81
2022/04/22 00:17:42;;;;;;;9.25;4.50;;;8.90;99.90;;;;;;4963253;28;20039;-79
2022/04/22 00:20:10;;;;;;;9.65;3.90;;;8.80;99.90;;;;;;4967542;28;20027;-79
2022/04/22 00:22:40;;;;;;;9.05;4.35;;;8.80;99.90;;;;;;4964375;28;20042;-78
2022/04/22 00:25:08;;;;;;;11.57;4.60;;;8.80;99.90;;;;;;4959375;28;20518;-79
2022/04/22 00:27:34;;;;;;;6.30;4.00;;;8.70;99.90;;;;;;4965079;28;20294;-79
2022/04/22 00:30:00;;;;;;;8.52;4.32;;;8.70;99.90;;;;;;4969488;28;20027;-79
2022/04/22 00:32:25;;;;;;;11.23;4.05;;;8.70;99.90;;;;;;4951000;28;20046;-79
2022/04/22 00:34:51;;;;;;;9.05;4.22;;;8.70;99.90;;;;;;4966198;28;20038;-78
2022/04/22 00:37:17;;;;;;;7.38;3.85;;;8.70;99.90;;;;;;4964304;28;20027;-79
2022/04/22 00:39:42;;;;;;;8.32;3.85;;;8.60;99.90;;;;;;4952136;28;20058;-78
2022/04/22 00:42:10;;;;;;;8.15;3.80;;;8.60;99.90;;;;;;4982234;28;20027;-80
2022/04/22 00:44:37;;;;;;;7.82;3.78;;;8.60;99.90;;;;;;4952693;28;20039;-80
2022/04/22 00:47:03;;;;;;;6.90;3.15;;;8.60;99.90;;;;;;4967301;28;20147;-80
2022/04/22 00:49:29;;;;;;;6.93;3.30;;;8.50;99.90;;;;;;4966031;28;20035;-79
2022/04/22 00:51:58;;;;;;;7.57;3.60;;;8.50;99.90;;;;;;4961834;28;20060;-78
2022/04/22 00:54:25;;;;;;;7.63;3.85;;;8.50;99.90;;;;;;4947213;28;20112;-80
2022/04/22 00:56:51;;;;;;;5.57;3.28;;;8.50;99.90;;;;;;4950255;28;20038;-78
2022/04/22 00:59:18;;;;;;;6.68;3.40;;;8.50;99.90;;;;;;4970418;28;20027;-80
2022/04/22 01:01:43;;;;;;;12.90;3.38;;;8.50;99.90;;;;;;4954380;28;20118;-78
2022/04/22 01:09:47;;;;;;;6.35;3.53;;;8.60;99.90;;;;;;4963182;28;20034;-80
2022/04/22 01:12:14;;;;;;;8.00;3.47;;;8.50;99.90;;;;;;4961189;28;20035;-80
2022/04/22 01:14:41;;;;;;;7.20;3.80;;;8.50;99.90;;;;;;4967244;28;20039;-80
2022/04/22 01:17:08;;;;;;;6.88;3.35;;;8.50;99.90;;;;;;4964331;28;20107;-80
2022/04/22 01:19:33;;;;;;;7.60;3.50;;;8.50;99.90;;;;;;4944834;28;20559;-80
2022/04/22 01:22:00;;;;;;;7.07;3.33;;;8.40;99.90;;;;;;4971335;28;20053;-78
2022/04/22 01:24:27;;;;;;;6.93;3.95;;;8.40;99.90;;;;;;4967514;28;20085;-78
2022/04/22 01:26:55;;;;;;;7.25;4.05;;;8.40;99.90;;;;;;4963116;28;20033;-79
2022/04/22 01:29:21;;;;;;;10.93;4.30;;;8.40;99.90;;;;;;4949289;28;20073;-79
2022/04/22 01:31:47;;;;;;;8.05;3.83;;;8.40;99.90;;;;;;4964400;28;20038;-78
2022/04/22 01:34:13;;;;;;;10.38;4.00;;;8.40;99.90;;;;;;4953208;28;20443;-77
2022/04/22 01:36:39;;;;;;;9.73;3.83;;;8.40;99.90;;;;;;4958088;28;20061;-78
2022/04/22 01:39:05;;;;;;;7.15;4.07;;;8.30;99.90;;;;;;4959572;28;20030;-80
2022/04/22 01:41:30;;;;;;;9.50;4.10;;;8.30;99.90;;;;;;4967918;28;20031;-79
2022/04/22 01:43:57;;;;;;;7.55;3.80;;;8.30;99.90;;;;;;4967464;28;20101;-79
2022/04/22 01:46:23;;;;;;;8.45;3.70;;;8.30;99.90;;;;;;4948790;28;20299;-80
2022/04/22 01:48:48;;;;;;;7.40;4.13;;;8.30;99.90;;;;;;4966275;28;20031;-79
2022/04/22 01:51:14;;;;;;;8.27;4.05;;;8.30;99.90;;;;;;4962634;28;20066;-80
2022/04/22 01:53:40;;;;;;;9.15;3.85;;;8.30;99.90;;;;;;4963275;28;20031;-80
2022/04/22 01:56:06;;;;;;;7.88;4.10;;;8.30;99.90;;;;;;4945337;28;20035;-79
2022/04/22 01:58:32;;;;;;;8.25;3.60;;;8.20;99.90;;;;;;4963569;28;20115;-80
2022/04/22 02:00:58;;;;;;;10.43;4.57;;;8.20;99.90;;;;;;4967390;28;20026;-79
2022/04/22 02:03:24;;;;;;;5.80;3.63;;;8.20;99.90;;;;;;4970830;28;20408;-80
2022/04/22 02:05:50;;;;;;;6.38;3.70;;;8.20;99.90;;;;;;4947146;28;20522;-80
2022/04/22 02:08:16;;;;;;;8.27;3.70;;;8.20;99.90;;;;;;4965373;28;20529;-80
2022/04/22 02:10:42;;;;;;;7.65;3.85;;;8.20;99.90;;;;;;4944522;28;20031;-79
2022/04/22 02:13:09;;;;;;;8.43;3.90;;;8.10;99.90;;;;;;4950024;28;20088;-78
2022/04/22 02:15:36;;;;;;;7.25;3.67;;;8.10;99.90;;;;;;4967532;28;20404;-78
2022/04/22 02:18:01;;;;;;;9.23;4.10;;;8.20;99.90;;;;;;4947714;28;20062;-78
2022/04/22 02:20:27;;;;;;;10.13;4.10;;;8.20;99.90;;;;;;4973577;28;20019;-78
2022/04/22 02:22:53;;;;;;;9.43;3.83;;;8.10;99.90;;;;;;4954143;28;20027;-80
2022/04/22 02:25:19;;;;;;;10.07;3.63;;;8.10;99.90;;;;;;4958302;28;20133;-79
2022/04/22 02:30:30;;;;;;;7.35;3.47;;;8.00;99.90;;;;;;4985463;28;20041;-78
2022/04/22 02:32:56;;;;;;;10.82;3.70;;;8.00;99.90;;;;;;4964772;28;20035;-80
2022/04/22 02:35:22;;;;;;;9.15;4.70;;;8.10;99.90;;;;;;4951400;28;20027;-80
2022/04/22 02:37:49;;;;;;;8.60;3.58;;;8.10;99.90;;;;;;4961827;28;20033;-78
2022/04/22 02:45:44;;;;;;;8.25;3.30;;;8.00;99.90;;;;;;4968334;28;20533;-78
2022/04/22 02:48:10;;;;;;;6.30;3.33;;;8.00;99.90;;;;;;4970072;28;20027;-78
2022/04/22 02:50:36;;;;;;;5.65;3.25;;;8.00;99.90;;;;;;4950973;28;20039;-79
2022/04/22 02:53:01;;;;;;;6.45;3.50;;;7.90;99.90;;;;;;4983736;28;20030;-78
2022/04/22 02:55:27;;;;;;;6.88;3.47;;;7.90;99.90;;;;;;4964696;28;20031;-78
2022/04/22 02:57:53;;;;;;;6.70;3.13;;;7.90;99.90;;;;;;4967313;28;20063;-79
2022/04/22 03:00:18;;;;;;;6.88;3.53;;;7.80;99.90;;;;;;4964705;28;20082;-79
2022/04/22 03:02:44;;;;;;;7.05;3.58;;;7.90;99.90;;;;;;4952200;28;20039;-78
2022/04/22 03:05:11;;;;;;;7.68;3.00;;;7.90;99.90;;;;;;4970108;28;20554;-77
2022/04/22 03:07:37;;;;;;;7.22;3.55;;;7.90;99.90;;;;;;4985410;28;20058;-77
2022/04/22 03:10:05;;;;;;;8.38;3.85;;;7.90;99.90;;;;;;4970067;28;20058;-77
2022/04/22 03:12:31;;;;;;;6.97;3.35;;;7.90;99.90;;;;;;4951008;28;20039;-79
2022/04/22 03:14:57;;;;;;;6.00;3.20;;;7.80;99.90;;;;;;4961955;28;20030;-79
2022/04/22 03:17:23;;;;;;;6.15;3.00;;;7.80;99.90;;;;;;4959656;28;20020;-79
2022/04/22 03:19:51;;;;;;;6.97;3.42;;;7.80;99.90;;;;;;4967461;28;20027;-79
2022/04/22 03:22:16;;;;;;;5.32;3.10;;;7.80;99.90;;;;;;4968179;28;20033;-78
2022/04/22 03:24:42;;;;;;;6.15;3.15;;;7.80;99.90;;;;;;4967499;28;20066;-79
2022/04/22 03:27:09;;;;;;;5.78;3.30;;;7.80;99.90;;;;;;4970164;28;20046;-79
2022/04/22 03:29:35;;;;;;;6.25;3.03;;;7.70;99.90;;;;;;4965995;28;20815;-80
2022/04/22 03:32:01;;;;;;;6.22;2.88;;;7.80;99.90;;;;;;4969924;28;20026;-80
2022/04/22 03:34:27;;;;;;;7.68;3.50;;;7.80;99.90;;;;;;4967827;28;20134;-81
2022/04/22 03:36:53;;;;;;;6.22;3.75;;;7.70;99.90;;;;;;4969337;28;20122;-78
2022/04/22 03:39:18;;;;;;;8.23;3.40;;;7.70;99.90;;;;;;4967019;28;20027;-80
2022/04/22 03:41:44;;;;;;;7.00;3.50;;;7.70;99.90;;;;;;4972434;28;20032;-79
2022/04/22 03:44:10;;;;;;;7.50;3.35;;;7.70;99.90;;;;;;4970018;28;20079;-79
2022/04/22 03:46:36;;;;;;;9.65;4.05;;;7.80;99.90;;;;;;4967101;28;20035;-79
2022/04/22 03:49:04;;;;;;;11.63;3.50;;;7.70;99.90;;;;;;4947417;28;20041;-77
2022/04/22 03:51:31;;;;;;;6.65;3.25;;;7.70;99.90;;;;;;4967761;28;20513;-78
2022/04/22 03:53:58;;;;;;;8.02;3.40;;;7.70;99.90;;;;;;4951474;28;20062;-78
2022/04/22 03:59:08;;;;;;;6.32;3.58;;;7.70;99.90;;;;;;4970277;28;20045;-78
2022/04/22 04:01:34;;;;;;;9.02;4.13;;;7.70;99.90;;;;;;4975987;28;20170;-78
2022/04/22 04:04:00;;;;;;;10.48;3.72;;;7.70;99.90;;;;;;4979213;28;20038;-77
2022/04/22 04:06:26;;;;;;;7.30;3.90;;;7.60;99.90;;;;;;4978832;28;20107;-78
2022/04/22 04:17:06;;;;;;;10.40;4.00;;;7.60;99.90;;;;;;4967606;28;20091;-77
2022/04/22 04:25:01;;;;;;;6.88;4.35;;;7.60;99.90;;;;;;4983728;28;20026;-77
2022/04/22 04:27:27;;;;;;;7.93;4.00;;;7.60;99.90;;;;;;4976511;28;20661;-81
2022/04/22 04:29:53;;;;;;;8.65;4.70;;;7.60;99.90;;;;;;4977006;28;20058;-78
2022/04/22 04:32:19;;;;;;;8.30;4.13;;;7.70;99.90;;;;;;4977052;28;20099;-78
2022/04/22 04:34:46;;;;;;;10.23;4.30;;;7.70;99.90;;;;;;4992855;28;20066;-80
2022/04/22 04:37:12;;;;;;;9.27;4.55;;;7.70;99.90;;;;;;4973797;28;20047;-78
2022/04/22 04:39:39;;;;;;;10.60;4.57;;;7.70;99.90;;;;;;4973522;28;20082;-79
2022/04/22 04:42:05;;;;;;;9.70;4.70;;;7.70;99.90;;;;;;4971394;28;20035;-80
2022/04/22 04:44:30;;;;;;;11.05;5.15;;;7.70;99.90;;;;;;4958472;28;20127;-78
2022/04/22 04:46:56;;;;;;;13.07;4.85;;;7.80;99.90;;;;;;4966743;28;20059;-79
2022/04/22 04:49:23;;;;;;;13.15;4.95;;;7.80;99.90;;;;;;4968750;28;20109;-80
2022/04/22 04:51:48;;;;;;;11.85;5.30;;;7.80;99.90;;;;;;4969075;28;20059;-78
2022/04/22 04:54:14;;;;;;;11.68;5.25;;;7.80;99.90;;;;;;4968663;28;20408;-79
2022/04/22 04:56:40;;;;;;;11.43;5.30;;;7.80;99.90;;;;;;4955092;28;20086;-79
2022/04/22 04:59:05;;;;;;;11.48;5.18;;;7.90;99.90;;;;;;4963110;28;20054;-79
2022/04/22 05:01:32;;;;;;;9.70;4.78;;;7.90;99.90;;;;;;4957051;28;20149;-80
2022/04/22 05:03:57;;;;;;;12.00;5.45;;;7.90;99.90;;;;;;4947632;28;20049;-80
2022/04/22 05:06:23;;;;;;;10.57;5.13;;;8.00;99.90;;;;;;4953329;28;20601;-78
2022/04/22 05:08:48;;;;;;;10.70;4.90;;;8.00;99.90;;;;;;4965589;28;20073;-79
2022/04/22 05:11:14;;;;;;;9.43;4.88;;;8.00;99.90;;;;;;4977299;28;20034;-78
2022/04/22 05:13:40;;;;;;;10.68;4.68;;;8.10;99.90;;;;;;4964391;28;20034;-79
2022/04/22 05:16:05;;;;;;;13.30;5.18;;;8.10;99.90;;;;;;4966625;28;20038;-80
2022/04/22 05:18:31;;;;;;;7.95;4.70;;;8.10;99.90;;;;;;4945321;28;20031;-78
2022/04/22 05:20:57;;;;;;;9.35;4.75;;;8.10;99.90;;;;;;4960822;28;20121;-79
2022/04/22 05:23:23;;;;;;;10.48;4.85;;;8.20;99.90;;;;;;4965311;28;20043;-77
2022/04/22 05:25:49;;;;;;;8.48;4.22;;;8.20;99.90;;;;;;4961970;28;20050;-78
2022/04/22 05:28:15;;;;;;;10.35;4.97;;;8.30;99.90;;;;;;4941256;28;20551;-78
2022/04/22 05:33:25;;;;;;;6.60;4.18;;;8.40;99.90;;;;;;4964858;28;20027;-76
2022/04/22 05:35:51;;;;;;;9.23;4.25;;;8.40;99.90;;;;;;4987458;28;20125;-79
2022/04/22 05:38:22;;;;;;;8.80;4.45;;;8.70;99.90;;;;;;4979274;28;20039;-77
2022/04/22 05:40:48;;;;;;;13.77;3.95;;;8.80;99.90;;;;;;4963630;28;20582;-79
2022/04/22 05:43:14;;;;;;;10.00;4.78;;;8.80;99.90;;;;;;4956953;28;20027;-79
2022/04/22 05:45:40;;;;;;;10.88;5.07;;;8.70;99.90;;;;;;4942916;28;20062;-79
2022/04/22 05:48:06;;;;;;;9.35;4.30;;;8.70;99.90;;;;;;4941726;28;20031;-75
2022/04/22 05:50:32;;;;;;;12.68;5.10;;;8.70;99.90;;;;;;4959173;28;20031;-74
2022/04/22 05:52:58;;;;;;;11.63;4.25;;;8.80;99.90;;;;;;4941174;28;20034;-72
2022/04/22 05:55:27;;;;;;;9.20;4.28;;;8.90;99.90;;;;;;4959099;28;20035;-74
2022/04/22 05:57:55;;;;;;;11.35;4.68;;;8.90;99.90;;;;;;4958701;28;20023;-77
2022/04/22 06:00:24;;;;;;;9.48;4.40;;;8.90;99.90;;;;;;4954793;28;20027;-78
2022/04/22 06:02:52;;;;;;;9.73;4.28;;;8.90;99.90;;;;;;4947554;28;20106;-79
2022/04/22 06:05:20;;;;;;;9.88;3.70;;;8.90;99.90;;;;;;4941018;28;20031;-78
2022/04/22 06:07:48;;;;;;;10.60;4.57;;;8.90;99.90;;;;;;4977314;28;20026;-80
2022/04/22 06:10:32;;;;;;;9.88;4.03;;;8.90;99.90;;;;;;4966049;28;20153;-78
2022/04/22 06:13:02;;;;;;;10.32;4.70;;;9.00;99.90;;;;;;4962652;28;20050;-80
2022/04/22 06:15:28;;;;;;;9.65;3.92;;;9.00;99.90;;;;;;4964020;28;20511;-79
2022/04/22 06:17:55;;;;;;;8.27;4.15;;;9.10;99.90;;;;;;4962252;28;20035;-78
2022/04/22 06:20:21;;;;;;;8.55;4.35;;;9.10;99.90;;;;;;4960982;28;20058;-79
2022/04/22 06:22:47;;;;;;;7.72;3.95;;;9.10;99.90;;;;;;4963421;28;20031;-79
2022/04/22 06:25:13;;;;;;;11.02;4.07;;;9.10;99.90;;;;;;4943538;28;20034;-79
2022/04/22 06:27:44;;;;;;;9.95;4.63;;;9.20;99.90;;;;;;4957669;28;20031;-78
2022/04/22 06:30:12;;;;;;;14.00;3.60;;;9.20;99.90;;;;;;4962888;28;20027;-78
2022/04/22 06:32:39;;;;;;;6.97;4.18;;;9.20;99.90;;;;;;4964407;28;20038;-78
2022/04/22 06:35:07;;;;;;;10.38;3.22;;;9.20;99.90;;;;;;4938224;28;20035;-78
2022/04/22 06:37:38;;;;;;;7.95;3.70;;;9.20;99.90;;;;;;4966043;28;20035;-79
2022/04/22 06:45:47;;;;;;;14.95;3.95;;;9.40;99.90;;;;;;4961558;28;20028;-80
2022/04/22 06:48:33;;;;;;;8.98;3.30;;;9.50;99.90;;;;;;4946611;28;20054;-78
2022/04/22 06:51:00;;;;;;;7.10;3.00;;;9.60;99.90;;;;;;4953680;28;20570;-79
2022/04/22 06:53:27;;;;;;;6.65;3.00;;;9.70;99.90;;;;;;4957690;28;20029;-77
2022/04/22 06:55:58;;;;;;;9.05;3.80;;;9.80;99.90;;;;;;4969377;28;20027;-77
2022/04/22 06:58:26;;;;;;;5.88;2.90;;;9.90;99.90;;;;;;4951037;28;20023;-78
2022/04/22 07:00:52;;;;;;;8.10;2.75;;;9.90;99.90;;;;;;4955842;28;20620;-78
2022/04/22 07:03:18;;;;;;;6.22;3.10;;;9.90;99.90;;;;;;4948495;28;20031;-78
2022/04/22 07:05:49;;;;;;;7.22;3.00;;;10.00;99.90;;;;;;4933725;28;20032;-77
2022/04/22 07:08:17;;;;;;;11.38;3.10;;;10.00;99.90;;;;;;4951296;28;20031;-78
2022/04/22 07:10:45;;;;;;;8.68;3.00;;;10.10;99.90;;;;;;4933474;28;20039;-78
2022/04/22 07:13:12;;;;;;;7.60;2.97;;;10.10;99.90;;;;;;4971385;28;20034;-78
2022/04/22 07:15:45;;;;;;;10.25;3.72;;;10.20;99.90;;;;;;4958342;28;21384;-76
2022/04/22 07:18:11;;;;;;;5.63;2.90;;;10.30;99.90;;;;;;4942474;28;20052;-77
2022/04/22 07:20:37;;;;;;;9.38;3.22;;;10.30;99.90;;;;;;4954848;28;20089;-77
2022/04/22 07:23:03;;;;;;;7.15;2.70;;;10.30;99.90;;;;;;4959945;28;20519;-77
2022/04/22 07:25:29;;;;;;;8.70;2.85;;;10.40;99.90;;;;;;4959705;28;20055;-78
2022/04/22 07:27:56;;;;;;;8.82;3.30;;;10.50;99.90;;;;;;4957412;28;20491;-78
2022/04/22 07:30:23;;;;;;;6.97;3.35;;;10.60;99.90;;;;;;4958708;28;20476;-77
2022/04/22 07:32:49;;;;;;;9.35;3.20;;;10.60;99.90;;;;;;4955297;28;20505;-77
2022/04/22 07:35:20;;;;;;;9.65;3.42;;;10.60;99.90;;;;;;4959305;28;20467;-75
2022/04/22 07:37:48;;;;;;;6.10;2.70;;;10.60;99.90;;;;;;4951483;28;20060;-76
2022/04/22 07:40:15;;;;;;;9.40;3.08;;;10.60;99.90;;;;;;4953870;28;20077;-76
2022/04/22 07:46:46;;;;;;;5.90;3.05;;;10.60;99.90;;;;;;4956591;28;20031;-76
2022/04/22 07:48:15;;;;;;;5.72;2.40;;;10.70;99.90;;;;;;4959326;28;20031;-77
2022/04/22 07:50:42;;;;;;;6.30;2.75;;;10.80;99.90;;;;;;4942501;28;20046;-77
2022/04/22 07:53:08;;;;;;;6.40;2.70;;;10.90;99.90;;;;;;4954785;28;20031;-77
2022/04/22 07:55:33;;;;;;;8.98;3.20;;;10.90;99.90;;;;;;4952988;28;20065;-76
2022/04/22 07:57:59;;;;;;;9.18;3.38;;;10.90;99.90;;;;;;4958835;28;20206;-77
2022/04/22 08:00:26;;;;;;;5.45;2.78;;;10.90;99.90;;;;;;4949575;28;20031;-77
2022/04/22 08:02:51;;;;;;;8.02;3.22;;;10.90;99.90;;;;;;4953541;28;20428;-77
2022/04/22 08:05:17;;;;;;;6.80;3.05;;;11.00;99.90;;;;;;4953389;28;20031;-77
2022/04/22 08:07:43;;;;;;;8.18;2.97;;;11.00;99.90;;;;;;4962883;28;20093;-77
2022/04/22 08:10:09;;;;;;;8.60;3.20;;;11.10;99.90;;;;;;4945589;28;20407;-77
2022/04/22 08:12:35;;;;;;;5.90;2.70;;;11.10;99.90;;;;;;4963882;28;20036;-76
2022/04/22 08:15:03;;;;;;;9.77;3.00;;;11.10;99.90;;;;;;4958865;28;20023;-76
2022/04/22 08:17:36;;;;;;;4.97;2.75;;;11.20;99.90;;;;;;4958082;28;20121;-76
2022/04/22 08:20:06;;;;;;;5.97;3.00;;;11.30;99.90;;;;;;4962619;28;20023;-77
2022/04/22 08:22:33;;;;;;;8.20;3.13;;;11.30;99.90;;;;;;4962778;28;20396;-76
2022/04/22 08:24:59;;;;;;;7.28;3.50;;;11.40;99.90;;;;;;4961601;28;20470;-77
2022/04/22 08:27:26;;;;;;;11.18;4.25;;;11.40;99.90;;;;;;4943825;28;20057;-77
2022/04/22 08:29:52;;;;;;;8.02;3.28;;;11.50;99.90;;;;;;4960430;28;20436;-77
2022/04/22 08:32:18;;;;;;;7.13;2.92;;;11.60;99.90;;;;;;4955223;28;20026;-75
2022/04/22 08:34:44;;;;;;;4.57;3.05;;;11.60;99.90;;;;;;4936093;28;20039;-77
2022/04/22 08:37:10;;;;;;;10.80;3.50;;;11.70;99.90;;;;;;4956826;28;20058;-78
2022/04/22 08:39:36;;;;;;;5.72;2.85;;;11.80;99.90;;;;;;4957474;28;20027;-77
2022/04/22 08:42:03;;;;;;;10.13;3.75;;;11.80;99.90;;;;;;4946176;28;20033;-77
2022/04/22 08:44:30;;;;;;;10.95;3.70;;;11.70;99.90;;;;;;4940996;28;20074;-77
2022/04/22 08:52:32;;;;;;;9.55;3.70;;;11.80;99.90;;;;;;4960400;28;20166;-77
2022/04/22 08:55:00;;;;;;;12.93;3.55;;;11.80;99.90;;;;;;4961308;28;20103;-78
2022/04/22 08:57:28;;;;;;;8.13;3.40;;;11.90;99.90;;;;;;4949110;28;20030;-77
2022/04/22 08:59:59;;;;;;;9.98;3.50;;;11.90;99.90;;;;;;4947229;28;20471;-75
2022/04/22 09:02:25;;;;;;;8.35;4.22;;;12.10;99.90;;;;;;4955309;28;20023;-76
2022/04/22 09:04:51;;;;;;;7.10;3.97;;;12.20;99.90;;;;;;4956097;28;20637;-76
2022/04/22 09:07:19;;;;;;;11.70;3.60;;;12.20;99.90;;;;;;4960277;28;20310;-76
2022/04/22 09:09:52;;;;;;;6.47;2.92;;;12.20;99.90;;;;;;4944974;28;20037;-77
2022/04/22 09:12:20;;;;;;;8.93;3.55;;;12.40;99.90;;;;;;4960256;28;20364;-77
2022/04/22 09:14:49;;;;;;;7.97;3.65;;;12.40;99.90;;;;;;4944157;28;20513;-76
2022/04/22 09:17:17;;;;;;;11.65;3.67;;;12.40;99.90;;;;;;4961957;28;20046;-77
2022/04/22 09:19:46;;;;;;;6.40;2.83;;;12.40;99.90;;;;;;4955063;28;20151;-76
2022/04/22 09:22:18;;;;;;;7.78;3.58;;;12.40;99.90;;;;;;4957908;28;20162;-77
2022/04/22 09:24:55;;;;;;;7.88;4.18;;;12.50;99.90;;;;;;4958699;28;20132;-76
2022/04/22 09:27:44;;;;;;;8.35;4.13;;;12.50;99.90;;;;;;4960231;28;20065;-77
2022/04/22 09:30:12;;;;;;;12.57;3.78;;;12.60;99.90;;;;;;4954072;28;20086;-78
2022/04/22 09:32:40;;;;;;;7.80;3.17;;;12.70;99.90;;;;;;4940674;28;20237;-77
2022/04/22 09:35:23;;;;;;;10.10;3.75;;;12.80;99.90;;;;;;4959096;28;20030;-77
2022/04/22 09:43:36;;;;;;;10.88;4.10;;;13.10;99.90;;;;;;4955234;28;20019;-75
2022/04/22 09:46:03;;;;;;;7.47;3.67;;;13.30;99.90;;;;;;4955993;28;20297;-77
2022/04/22 09:48:44;;;;;;;9.88;3.33;;;13.40;99.90;;;;;;4938702;28;20118;-76
2022/04/22 09:51:27;;;;;;;11.60;4.28;;;13.50;99.90;;;;;;4941087;28;20031;-76
2022/04/22 09:54:03;;;;;;;8.48;4.30;;;13.70;99.90;;;;;;4959886;28;20059;-77
2022/04/22 09:56:31;;;;;;;9.43;3.85;;;13.70;99.90;;;;;;4961763;28;20065;-76
2022/04/22 09:58:56;;;;;;;11.57;4.25;;;13.80;99.90;;;;;;4940890;28;20141;-76
2022/04/22 10:01:24;;;;;;;14.38;4.68;;;13.90;99.90;;;;;;4939796;28;20512;-77
2022/04/22 10:03:50;;;;;;;9.77;3.75;;;14.10;99.70;;;;;;4952872;28;20106;-77
2022/04/22 10:06:17;;;;;;;8.05;3.65;;;14.20;99.50;;;;;;4961473;28;20035;-78
2022/04/22 10:08:46;;;;;;;6.60;3.45;;;14.50;99.20;;;;;;4958719;28;20042;-77
2022/04/22 10:11:15;;;;;;;13.07;4.07;;;14.70;98.80;;;;;;4958759;28;20029;-79
2022/04/22 10:13:45;;;;;;;9.25;4.10;;;14.90;98.40;;;;;;4960270;28;20031;-78
2022/04/22 10:16:12;;;;;;;8.02;3.65;;;15.20;97.70;;;;;;4958046;28;20085;-76
2022/04/22 10:18:39;;;;;;;9.80;3.78;;;15.30;96.90;;;;;;4945955;28;20026;-76
2022/04/22 10:21:06;;;;;;;9.98;4.35;;;15.40;96.50;;;;;;4955876;28;20496;-77
2022/04/22 10:23:32;;;;;;;8.48;3.88;;;15.40;96.20;;;;;;4957570;28;20030;-77
2022/04/22 10:25:59;;;;;;;7.88;3.65;;;15.40;95.90;;;;;;4941559;28;20046;-76
2022/04/22 10:28:27;;;;;;;8.55;3.88;;;15.30;95.10;;;;;;4961744;28;20038;-79
2022/04/22 10:30:54;;;;;;;7.93;3.72;;;15.30;95.00;;;;;;4947315;28;20042;-77
2022/04/22 10:33:27;;;;;;;8.85;3.85;;;15.20;94.50;;;;;;4961169;28;20046;-77
2022/04/22 10:35:59;;;;;;;12.52;4.32;;;15.40;94.90;;;;;;4956672;28;20114;-76
2022/04/22 10:38:32;;;;;;;6.72;3.88;;;15.60;94.40;;;;;;4966916;28;20035;-77
2022/04/22 10:41:02;;;;;;;8.25;4.07;;;15.70;93.70;;;;;;4958891;28;20057;-77
2022/04/22 10:43:29;;;;;;;9.70;3.97;;;15.80;93.10;;;;;;4957656;28;20024;-78
2022/04/22 10:48:40;;;;;;;8.55;3.95;;;15.20;92.50;;;;;;4957654;28;20047;-77
2022/04/22 10:51:09;;;;;;;6.93;3.42;;;15.10;92.70;;;;;;4957279;28;20045;-77
2022/04/22 10:53:49;;;;;;;8.00;4.15;;;14.90;92.70;;;;;;4955220;28;20058;-77
2022/04/22 10:56:28;;;;;;;6.88;3.75;;;14.70;92.80;;;;;;4960365;28;20027;-78
2022/04/22 10:59:27;;;;;;;8.15;3.58;;;14.60;93.20;;;;;;4973358;28;20029;-76
2022/04/22 11:01:53;;;;;;;13.90;4.22;;;14.60;93.60;;;;;;4944607;28;20046;-76
2022/04/22 11:04:26;;;;;;;8.43;3.70;;;14.70;93.90;;;;;;4938977;28;20031;-77
2022/04/22 11:06:53;;;;;;;10.57;3.65;;;14.70;93.90;;;;;;4955699;28;20122;-76
2022/04/22 11:09:26;;;;;;;10.27;4.38;;;14.80;94.20;;;;;;4932352;28;20030;-76
2022/04/22 11:11:53;;;;;;;11.57;4.03;;;14.90;94.60;;;;;;4956829;28;20034;-77
2022/04/22 11:14:23;;;;;;;12.18;4.50;;;14.90;94.50;;;;;;4956121;28;20478;-76
2022/04/22 11:16:51;;;;;;;8.50;3.63;;;14.80;94.30;;;;;;4955491;28;20042;-77
2022/04/22 11:19:19;;;;;;;10.07;4.20;;;14.60;95.00;;;;;;4951589;28;20081;-78
2022/04/22 11:21:46;;;;;;;9.98;4.22;;;14.50;95.40;;;;;;4957954;28;21470;-77
2022/04/22 11:24:21;;;;;;;12.80;4.22;;;14.50;95.60;;;;;;4955770;28;20023;-74
2022/04/22 11:26:47;;;;;;;8.88;3.22;;;14.60;95.90;;;;;;4958301;28;20285;-72
2022/04/22 11:29:15;;;;;;;7.15;3.90;;;14.80;95.60;;;;;;4948955;28;20518;-73
2022/04/22 11:31:45;;;;;;;9.13;4.03;;;14.90;94.80;;;;;;4951472;28;20043;-77
2022/04/22 11:34:15;;;;;;;8.75;3.95;;;15.10;94.40;;;;;;4955921;28;20031;-80
2022/04/22 11:36:45;;;;;;;9.65;3.58;;;15.40;93.90;;;;;;4957318;28;20031;-73
2022/04/22 11:39:17;;;;;;;8.98;4.18;;;15.60;93.40;;;;;;4948386;28;20101;-74
2022/04/22 11:41:58;;;;;;;7.40;4.22;;;15.60;92.70;;;;;;4952183;28;20053;-73
2022/04/22 11:44:24;;;;;;;8.85;3.88;;;15.70;92.50;;;;;;4951697;28;20106;-77
2022/04/22 11:46:51;;;;;;;10.10;3.92;;;15.90;92.90;;;;;;4958116;28;20058;-77
2022/04/22 11:49:18;;;;;;;9.45;4.30;;;16.00;92.40;;;;;;4959504;28;20058;-78
2022/04/22 11:51:44;;;;;;;8.85;3.53;;;16.40;92.40;;;;;;4946035;28;20037;-80
2022/04/22 11:54:10;;;;;;;8.52;3.65;;;16.90;91.80;;;;;;4961180;28;20030;-77
2022/04/22 11:56:35;;;;;;;7.75;4.25;;;17.40;90.80;;;;;;4975873;28;20046;-80
2022/04/22 11:59:01;;;;;;;8.23;3.60;;;17.60;86.30;;;;;;4970296;28;20027;-80
2022/04/22 12:08:00;;;;;;;8.15;3.40;;;18.70;85.30;;;;;;4961660;28;20038;-79
2022/04/22 12:10:01;;;;;;;7.47;3.47;;;18.90;83.50;;;;;;4960310;28;20057;-77
2022/04/22 12:12:29;;;;;;;7.68;3.33;;;19.30;83.00;;;;;;4977053;28;20065;-80
2022/04/22 12:15:00;;;;;;;10.88;3.75;;;19.80;79.50;;;;;;4959555;28;20035;-77
2022/04/22 12:17:28;;;;;;;8.90;3.83;;;20.20;76.20;;;;;;4957378;28;20026;-79
2022/04/22 12:19:54;;;;;;;6.80;3.42;;;20.70;74.60;;;;;;4959550;28;20522;-77
2022/04/22 12:22:24;;;;;;;7.25;3.05;;;21.60;71.80;;;;;;4978795;28;20042;-79
2022/04/22 12:25:19;;;;;;;7.55;3.05;;;21.80;69.30;;;;;;4943343;28;20053;-78
2022/04/22 12:28:13;;;;;;;5.03;2.85;;;21.90;67.30;;;;;;4963490;28;20054;-76
2022/04/22 12:30:43;;;;;;;7.82;3.08;;;21.90;66.20;;;;;;4966800;28;20034;-76
2022/04/22 12:33:21;;;;;;;7.55;2.92;;;21.70;65.60;;;;;;4950594;28;20031;-76
2022/04/22 12:35:51;;;;;;;8.70;3.30;;;22.20;66.50;;;;;;4960622;28;20046;-77
2022/04/22 12:38:17;;;;;;;7.22;3.00;;;22.70;62.50;;;;;;4955859;28;20066;-78
2022/04/22 12:40:48;;;;;;;6.65;3.05;;;23.60;60.80;;;;;;4958929;28;20022;-77
2022/04/22 12:43:28;;;;;;;6.95;3.17;;;23.90;59.60;;;;;;4939249;28;20030;-75
2022/04/22 12:52:17;;;;;;;6.47;3.42;;;25.30;54.80;;;;;;4964737;28;20043;-77
2022/04/22 12:54:48;;;;;;;6.80;3.17;;;25.70;54.00;;;;;;4975048;28;20066;-77
2022/04/22 12:57:20;;;;;;;4.78;3.03;;;26.40;53.50;;;;;;4976826;28;20174;-80
2022/04/22 12:59:49;;;;;;;5.60;3.10;;;27.30;51.40;;;;;;4977050;28;20031;-79
2022/04/22 13:02:18;;;;;;;6.25;3.10;;;27.80;48.40;;;;;;4965011;28;20054;-80
2022/04/22 13:04:54;;;;;;;12.10;4.30;;;28.20;48.00;;;;;;4954152;28;20113;-75
2022/04/22 13:07:21;;;;;;;9.60;4.57;;;28.60;48.20;;;;;;4962310;28;20034;-79
2022/04/22 13:09:47;;;;;;;10.98;4.75;;;29.20;45.60;;;;;;4942187;28;20063;-78
2022/04/22 13:12:13;;;;;;;12.13;4.07;;;28.80;44.50;;;;;;4962711;28;20038;-79
2022/04/22 13:14:40;;;;;;;6.47;3.15;;;28.20;44.90;;;;;;4963857;28;20039;-78
2022/04/22 13:17:05;;;;;;;7.53;3.10;;;27.10;44.50;;;;;;4945340;28;20098;-74
2022/04/22 13:19:32;;;;;;;9.55;4.82;;;25.60;45.60;;;;;;4966215;28;20071;-82
2022/04/22 13:21:58;;;;;;;9.55;4.03;;;24.20;48.10;;;;;;4974040;28;20055;-80
2022/04/22 13:24:24;;;;;;;10.15;4.00;;;23.60;50.40;;;;;;4955616;28;20058;-79
2022/04/22 13:26:50;;;;;;;10.00;4.13;;;24.30;51.80;;;;;;4963072;28;20104;-77
2022/04/22 13:29:16;;;;;;;7.65;3.78;;;25.40;50.20;;;;;;4968599;28;20055;-81
2022/04/22 13:31:42;;;;;;;8.55;4.22;;;26.50;49.10;;;;;;4944967;28;20042;-80
2022/04/22 13:34:07;;;;;;;8.18;2.95;;;27.20;47.70;;;;;;4963602;28;20047;-82
2022/04/22 13:36:35;;;;;;;6.95;3.03;;;27.30;46.00;;;;;;4962574;28;20046;-80
2022/04/22 13:39:01;;;;;;;14.15;4.13;;;27.40;45.00;;;;;;4930985;28;20065;-78
2022/04/22 13:41:26;;;;;;;5.50;2.88;;;26.90;45.70;;;;;;4959215;28;20057;-76
2022/04/22 13:43:52;;;;;;;6.70;3.20;;;27.30;46.50;;;;;;4956983;28;20039;-81
2022/04/22 13:54:32;;;;;;;7.90;3.15;;;27.30;43.90;;;;;;4952149;28;20055;-77
2022/04/22 13:56:58;;;;;;;6.30;3.42;;;26.20;45.20;;;;;;4935892;28;20129;-76
2022/04/22 13:59:24;;;;;;;5.63;3.13;;;25.20;46.10;;;;;;4952912;28;21250;-72
2022/04/22 14:01:49;;;;;;;9.25;3.67;;;23.90;47.70;;;;;;4943328;28;20030;-74
2022/04/22 14:04:15;;;;;;;7.25;3.67;;;23.00;49.70;;;;;;4948593;28;20046;-74
2022/04/22 14:06:42;;;;;;;7.18;3.55;;;22.20;51.50;;;;;;4937408;28;20509;-80
2022/04/22 14:09:08;;;;;;;5.65;3.28;;;21.50;52.20;;;;;;4949953;28;20085;-77